sensor_id;sensor_type;location;lat;lon;timestamp;P1;durP1;ratioP1;P2;durP2;ratioP2
62419;SDS011;48460;51.616;5.426;2023-02-27T00:01:48;7.25;;;2.50;;
62419;SDS011;48460;51.616;5.426;2023-02-27T00:04:13;9.00;;;2.40;;
62419;SDS011;48460;51.616;5.426;2023-02-27T00:06:39;6.10;;;2.28;;
62419;SDS011;48460;51.616;5.426;2023-02-27T00:09:10;6.78;;;2.03;;
62419;SDS011;48460;51.616;5.426;2023-02-27T00:11:38;8.53;;;2.57;;
62419;SDS011;48460;51.616;5.426;2023-02-27T00:14:09;7.97;;;2.10;;
62419;SDS011;48460;51.616;5.426;2023-02-27T00:16:39;9.25;;;2.20;;
62419;SDS011;48460;51.616;5.426;2023-02-27T00:19:05;6.03;;;1.98;;
62419;SDS011;48460;51.616;5.426;2023-02-27T00:21:55;7.55;;;2.20;;
62419;SDS011;48460;51.616;5.426;2023-02-27T00:24:23;6.93;;;2.13;;
62419;SDS011;48460;51.616;5.426;2023-02-27T00:26:49;11.43;;;2.08;;
62419;SDS011;48460;51.616;5.426;2023-02-27T00:29:16;4.15;;;2.00;;
62419;SDS011;48460;51.616;5.426;2023-02-27T00:31:49;9.40;;;2.30;;
62419;SDS011;48460;51.616;5.426;2023-02-27T00:34:14;7.70;;;2.28;;
62419;SDS011;48460;51.616;5.426;2023-02-27T00:36:40;6.60;;;2.25;;
62419;SDS011;48460;51.616;5.426;2023-02-27T00:39:06;3.63;;;1.80;;
62419;SDS011;48460;51.616;5.426;2023-02-27T00:41:31;7.93;;;1.92;;
62419;SDS011;48460;51.616;5.426;2023-02-27T00:43:57;7.07;;;2.10;;
62419;SDS011;48460;51.616;5.426;2023-02-27T00:46:27;7.25;;;2.00;;
62419;SDS011;48460;51.616;5.426;2023-02-27T00:49:02;8.23;;;2.40;;
62419;SDS011;48460;51.616;5.426;2023-02-27T00:51:30;6.82;;;2.20;;
62419;SDS011;48460;51.616;5.426;2023-02-27T00:53:58;6.80;;;2.20;;
62419;SDS011;48460;51.616;5.426;2023-02-27T00:56:24;9.20;;;2.70;;
62419;SDS011;48460;51.616;5.426;2023-02-27T00:59:10;5.82;;;2.10;;
62419;SDS011;48460;51.616;5.426;2023-02-27T01:01:38;6.95;;;2.42;;
62419;SDS011;48460;51.616;5.426;2023-02-27T01:04:17;14.45;;;3.08;;
62419;SDS011;48460;51.616;5.426;2023-02-27T01:06:45;5.38;;;1.95;;
62419;SDS011;48460;51.616;5.426;2023-02-27T01:09:11;8.98;;;2.33;;
62419;SDS011;48460;51.616;5.426;2023-02-27T01:11:44;6.75;;;2.10;;
62419;SDS011;48460;51.616;5.426;2023-02-27T01:14:09;7.38;;;2.40;;
62419;SDS011;48460;51.616;5.426;2023-02-27T01:16:37;6.22;;;2.13;;
62419;SDS011;48460;51.616;5.426;2023-02-27T01:19:08;6.03;;;2.13;;
62419;SDS011;48460;51.616;5.426;2023-02-27T01:21:36;5.75;;;2.38;;
62419;SDS011;48460;51.616;5.426;2023-02-27T01:24:01;4.93;;;2.10;;
62419;SDS011;48460;51.616;5.426;2023-02-27T01:26:29;9.43;;;2.22;;
62419;SDS011;48460;51.616;5.426;2023-02-27T01:28:55;6.82;;;2.50;;
62419;SDS011;48460;51.616;5.426;2023-02-27T01:31:24;8.52;;;2.13;;
62419;SDS011;48460;51.616;5.426;2023-02-27T01:33:54;9.00;;;2.30;;
62419;SDS011;48460;51.616;5.426;2023-02-27T01:36:20;6.57;;;2.42;;
62419;SDS011;48460;51.616;5.426;2023-02-27T01:38:48;9.05;;;2.50;;
62419;SDS011;48460;51.616;5.426;2023-02-27T01:41:16;6.30;;;2.08;;
62419;SDS011;48460;51.616;5.426;2023-02-27T01:44:05;6.95;;;2.33;;
62419;SDS011;48460;51.616;5.426;2023-02-27T01:46:42;9.02;;;2.33;;
62419;SDS011;48460;51.616;5.426;2023-02-27T01:49:22;5.18;;;2.08;;
62419;SDS011;48460;51.616;5.426;2023-02-27T01:52:18;6.82;;;2.40;;
62419;SDS011;48460;51.616;5.426;2023-02-27T01:54:50;6.05;;;2.20;;
62419;SDS011;48460;51.616;5.426;2023-02-27T01:57:17;6.17;;;2.33;;
62419;SDS011;48460;51.616;5.426;2023-02-27T01:59:45;6.80;;;1.98;;
62419;SDS011;48460;51.616;5.426;2023-02-27T02:05:13;9.50;;;2.15;;
62419;SDS011;48460;51.616;5.426;2023-02-27T02:08:38;9.20;;;2.33;;
62419;SDS011;48460;51.616;5.426;2023-02-27T02:15:17;6.68;;;2.30;;
62419;SDS011;48460;51.616;5.426;2023-02-27T02:30:40;8.25;;;2.30;;
62419;SDS011;48460;51.616;5.426;2023-02-27T02:37:33;5.03;;;2.38;;
62419;SDS011;48460;51.616;5.426;2023-02-27T02:40:29;6.22;;;2.53;;
62419;SDS011;48460;51.616;5.426;2023-02-27T02:43:09;5.25;;;2.30;;
62419;SDS011;48460;51.616;5.426;2023-02-27T02:46:23;7.35;;;2.40;;
62419;SDS011;48460;51.616;5.426;2023-02-27T02:52:22;9.35;;;2.42;;
62419;SDS011;48460;51.616;5.426;2023-02-27T03:01:02;8.57;;;2.95;;
62419;SDS011;48460;51.616;5.426;2023-02-27T03:04:01;10.77;;;2.45;;
62419;SDS011;48460;51.616;5.426;2023-02-27T03:10:10;5.25;;;2.28;;
62419;SDS011;48460;51.616;5.426;2023-02-27T03:12:44;11.05;;;2.55;;
62419;SDS011;48460;51.616;5.426;2023-02-27T03:15:17;6.13;;;2.30;;
62419;SDS011;48460;51.616;5.426;2023-02-27T03:18:02;5.90;;;2.53;;
62419;SDS011;48460;51.616;5.426;2023-02-27T03:20:38;7.93;;;2.50;;
62419;SDS011;48460;51.616;5.426;2023-02-27T03:23:12;6.05;;;2.65;;
62419;SDS011;48460;51.616;5.426;2023-02-27T03:25:45;6.38;;;2.42;;
62419;SDS011;48460;51.616;5.426;2023-02-27T03:28:18;3.92;;;2.17;;
62419;SDS011;48460;51.616;5.426;2023-02-27T03:30:54;7.28;;;2.72;;
62419;SDS011;48460;51.616;5.426;2023-02-27T03:33:32;8.55;;;2.70;;
62419;SDS011;48460;51.616;5.426;2023-02-27T03:36:19;6.95;;;2.67;;
62419;SDS011;48460;51.616;5.426;2023-02-27T03:39:03;6.63;;;2.60;;
62419;SDS011;48460;51.616;5.426;2023-02-27T03:41:36;6.18;;;2.50;;
62419;SDS011;48460;51.616;5.426;2023-02-27T03:44:10;5.55;;;2.50;;
62419;SDS011;48460;51.616;5.426;2023-02-27T03:46:50;5.70;;;2.40;;
62419;SDS011;48460;51.616;5.426;2023-02-27T03:49:29;8.15;;;2.33;;
62419;SDS011;48460;51.616;5.426;2023-02-27T03:51:55;5.35;;;2.20;;
62419;SDS011;48460;51.616;5.426;2023-02-27T03:57:00;6.75;;;2.63;;
62419;SDS011;48460;51.616;5.426;2023-02-27T03:59:33;7.95;;;2.60;;
62419;SDS011;48460;51.616;5.426;2023-02-27T04:02:04;9.73;;;2.70;;
62419;SDS011;48460;51.616;5.426;2023-02-27T04:04:35;5.80;;;2.38;;
62419;SDS011;48460;51.616;5.426;2023-02-27T04:10:06;8.40;;;2.47;;
62419;SDS011;48460;51.616;5.426;2023-02-27T04:28:15;3.33;;;2.17;;
62419;SDS011;48460;51.616;5.426;2023-02-27T04:33:52;5.50;;;2.40;;
62419;SDS011;48460;51.616;5.426;2023-02-27T04:37:00;4.68;;;2.10;;
62419;SDS011;48460;51.616;5.426;2023-02-27T04:39:55;8.05;;;2.58;;
62419;SDS011;48460;51.616;5.426;2023-02-27T04:42:28;7.53;;;2.50;;
62419;SDS011;48460;51.616;5.426;2023-02-27T04:44:57;6.75;;;2.80;;
62419;SDS011;48460;51.616;5.426;2023-02-27T04:47:30;4.95;;;2.50;;
62419;SDS011;48460;51.616;5.426;2023-02-27T04:50:13;9.88;;;2.90;;
62419;SDS011;48460;51.616;5.426;2023-02-27T04:52:49;12.48;;;2.80;;
62419;SDS011;48460;51.616;5.426;2023-02-27T04:55:27;6.70;;;2.83;;
62419;SDS011;48460;51.616;5.426;2023-02-27T04:57:58;6.30;;;2.80;;
62419;SDS011;48460;51.616;5.426;2023-02-27T05:00:27;7.80;;;2.50;;
62419;SDS011;48460;51.616;5.426;2023-02-27T05:02:58;7.53;;;2.70;;
62419;SDS011;48460;51.616;5.426;2023-02-27T05:05:35;6.22;;;2.60;;
62419;SDS011;48460;51.616;5.426;2023-02-27T05:11:12;8.80;;;2.88;;
62419;SDS011;48460;51.616;5.426;2023-02-27T05:13:55;9.82;;;3.10;;
62419;SDS011;48460;51.616;5.426;2023-02-27T05:16:31;5.88;;;2.45;;
62419;SDS011;48460;51.616;5.426;2023-02-27T05:18:57;8.02;;;2.78;;
62419;SDS011;48460;51.616;5.426;2023-02-27T05:21:50;5.70;;;2.80;;
62419;SDS011;48460;51.616;5.426;2023-02-27T05:27:41;8.13;;;2.75;;
62419;SDS011;48460;51.616;5.426;2023-02-27T05:30:20;8.30;;;2.80;;
62419;SDS011;48460;51.616;5.426;2023-02-27T05:35:34;7.82;;;3.03;;
62419;SDS011;48460;51.616;5.426;2023-02-27T05:39:14;7.72;;;2.90;;
62419;SDS011;48460;51.616;5.426;2023-02-27T05:44:50;5.32;;;2.85;;
62419;SDS011;48460;51.616;5.426;2023-02-27T05:47:27;6.80;;;3.55;;
62419;SDS011;48460;51.616;5.426;2023-02-27T05:52:44;6.72;;;3.58;;
62419;SDS011;48460;51.616;5.426;2023-02-27T06:14:48;7.13;;;2.95;;
62419;SDS011;48460;51.616;5.426;2023-02-27T06:17:15;13.18;;;3.17;;
62419;SDS011;48460;51.616;5.426;2023-02-27T06:19:43;9.30;;;3.40;;
62419;SDS011;48460;51.616;5.426;2023-02-27T06:22:09;8.23;;;2.88;;
62419;SDS011;48460;51.616;5.426;2023-02-27T06:24:35;7.50;;;3.22;;
62419;SDS011;48460;51.616;5.426;2023-02-27T06:27:01;6.78;;;2.95;;
62419;SDS011;48460;51.616;5.426;2023-02-27T06:29:29;13.98;;;3.35;;
62419;SDS011;48460;51.616;5.426;2023-02-27T06:31:54;6.57;;;2.88;;
62419;SDS011;48460;51.616;5.426;2023-02-27T06:34:20;9.93;;;3.40;;
62419;SDS011;48460;51.616;5.426;2023-02-27T06:36:45;9.82;;;3.28;;
62419;SDS011;48460;51.616;5.426;2023-02-27T06:39:11;10.23;;;3.08;;
62419;SDS011;48460;51.616;5.426;2023-02-27T06:41:40;8.52;;;3.00;;
62419;SDS011;48460;51.616;5.426;2023-02-27T06:44:05;7.53;;;3.20;;
62419;SDS011;48460;51.616;5.426;2023-02-27T06:46:33;13.23;;;3.63;;
62419;SDS011;48460;51.616;5.426;2023-02-27T06:48:58;7.65;;;3.25;;
62419;SDS011;48460;51.616;5.426;2023-02-27T06:51:33;9.95;;;3.20;;
62419;SDS011;48460;51.616;5.426;2023-02-27T06:54:01;10.35;;;3.28;;
62419;SDS011;48460;51.616;5.426;2023-02-27T06:56:27;8.85;;;3.28;;
62419;SDS011;48460;51.616;5.426;2023-02-27T06:58:55;7.82;;;3.30;;
62419;SDS011;48460;51.616;5.426;2023-02-27T07:01:20;9.05;;;3.17;;
62419;SDS011;48460;51.616;5.426;2023-02-27T07:03:52;9.95;;;3.35;;
62419;SDS011;48460;51.616;5.426;2023-02-27T07:06:23;9.57;;;3.33;;
62419;SDS011;48460;51.616;5.426;2023-02-27T07:08:51;7.47;;;3.38;;
62419;SDS011;48460;51.616;5.426;2023-02-27T07:11:16;6.03;;;3.00;;
62419;SDS011;48460;51.616;5.426;2023-02-27T07:13:42;10.63;;;2.95;;
62419;SDS011;48460;51.616;5.426;2023-02-27T07:16:07;7.55;;;3.05;;
62419;SDS011;48460;51.616;5.426;2023-02-27T07:18:33;8.68;;;3.17;;
62419;SDS011;48460;51.616;5.426;2023-02-27T07:21:05;13.70;;;3.45;;
62419;SDS011;48460;51.616;5.426;2023-02-27T07:23:31;11.00;;;3.83;;
62419;SDS011;48460;51.616;5.426;2023-02-27T07:25:59;11.45;;;4.10;;
62419;SDS011;48460;51.616;5.426;2023-02-27T07:28:24;12.00;;;3.60;;
62419;SDS011;48460;51.616;5.426;2023-02-27T07:30:58;13.75;;;3.88;;
62419;SDS011;48460;51.616;5.426;2023-02-27T07:36:24;7.32;;;2.95;;
62419;SDS011;48460;51.616;5.426;2023-02-27T07:38:50;8.48;;;3.30;;
62419;SDS011;48460;51.616;5.426;2023-02-27T07:41:15;8.55;;;3.35;;
62419;SDS011;48460;51.616;5.426;2023-02-27T07:43:41;9.27;;;3.40;;
62419;SDS011;48460;51.616;5.426;2023-02-27T07:58:55;7.60;;;3.15;;
62419;SDS011;48460;51.616;5.426;2023-02-27T08:01:20;10.38;;;3.60;;
62419;SDS011;48460;51.616;5.426;2023-02-27T08:07:26;7.22;;;3.40;;
62419;SDS011;48460;51.616;5.426;2023-02-27T08:13:41;8.85;;;3.78;;
62419;SDS011;48460;51.616;5.426;2023-02-27T08:16:09;9.55;;;3.63;;
62419;SDS011;48460;51.616;5.426;2023-02-27T08:18:35;9.50;;;3.72;;
62419;SDS011;48460;51.616;5.426;2023-02-27T08:21:00;6.25;;;3.22;;
62419;SDS011;48460;51.616;5.426;2023-02-27T08:23:28;6.80;;;3.22;;
62419;SDS011;48460;51.616;5.426;2023-02-27T08:25:54;8.57;;;3.70;;
62419;SDS011;48460;51.616;5.426;2023-02-27T08:28:21;9.55;;;3.50;;
62419;SDS011;48460;51.616;5.426;2023-02-27T08:30:54;7.90;;;3.30;;
62419;SDS011;48460;51.616;5.426;2023-02-27T08:33:20;6.97;;;3.10;;
62419;SDS011;48460;51.616;5.426;2023-02-27T08:35:46;7.97;;;3.45;;
62419;SDS011;48460;51.616;5.426;2023-02-27T08:38:11;9.02;;;3.65;;
62419;SDS011;48460;51.616;5.426;2023-02-27T08:40:36;9.23;;;3.30;;
62419;SDS011;48460;51.616;5.426;2023-02-27T08:43:02;9.55;;;3.20;;
62419;SDS011;48460;51.616;5.426;2023-02-27T08:45:27;11.32;;;3.45;;
62419;SDS011;48460;51.616;5.426;2023-02-27T08:47:53;7.03;;;3.30;;
62419;SDS011;48460;51.616;5.426;2023-02-27T08:50:18;6.28;;;2.83;;
62419;SDS011;48460;51.616;5.426;2023-02-27T08:52:44;6.65;;;3.20;;
62419;SDS011;48460;51.616;5.426;2023-02-27T08:55:20;7.22;;;3.30;;
62419;SDS011;48460;51.616;5.426;2023-02-27T08:57:45;6.25;;;2.80;;
62419;SDS011;48460;51.616;5.426;2023-02-27T09:00:11;8.98;;;3.20;;
62419;SDS011;48460;51.616;5.426;2023-02-27T09:02:38;6.28;;;2.90;;
62419;SDS011;48460;51.616;5.426;2023-02-27T09:05:05;5.88;;;2.97;;
62419;SDS011;48460;51.616;5.426;2023-02-27T09:07:32;8.00;;;3.35;;
62419;SDS011;48460;51.616;5.426;2023-02-27T09:09:59;8.07;;;3.20;;
62419;SDS011;48460;51.616;5.426;2023-02-27T09:12:25;8.43;;;2.92;;
62419;SDS011;48460;51.616;5.426;2023-02-27T09:14:50;6.10;;;3.10;;
62419;SDS011;48460;51.616;5.426;2023-02-27T09:17:18;5.00;;;2.28;;
62419;SDS011;48460;51.616;5.426;2023-02-27T09:19:46;8.10;;;2.63;;
62419;SDS011;48460;51.616;5.426;2023-02-27T09:22:11;10.05;;;2.30;;
62419;SDS011;48460;51.616;5.426;2023-02-27T09:24:38;9.63;;;3.15;;
62419;SDS011;48460;51.616;5.426;2023-02-27T09:27:14;5.45;;;2.40;;
62419;SDS011;48460;51.616;5.426;2023-02-27T09:29:42;7.00;;;2.80;;
62419;SDS011;48460;51.616;5.426;2023-02-27T09:32:07;6.40;;;2.60;;
62419;SDS011;48460;51.616;5.426;2023-02-27T09:34:33;8.45;;;3.03;;
62419;SDS011;48460;51.616;5.426;2023-02-27T09:36:59;8.00;;;2.60;;
62419;SDS011;48460;51.616;5.426;2023-02-27T09:39:26;7.55;;;2.20;;
62419;SDS011;48460;51.616;5.426;2023-02-27T09:44:33;4.25;;;2.20;;
62419;SDS011;48460;51.616;5.426;2023-02-27T09:47:20;6.70;;;2.38;;
62419;SDS011;48460;51.616;5.426;2023-02-27T09:53:13;7.55;;;2.38;;
62419;SDS011;48460;51.616;5.426;2023-02-27T09:55:43;4.18;;;1.90;;
62419;SDS011;48460;51.616;5.426;2023-02-27T10:14:57;5.03;;;2.10;;
62419;SDS011;48460;51.616;5.426;2023-02-27T10:17:45;5.82;;;2.10;;
62419;SDS011;48460;51.616;5.426;2023-02-27T10:20:24;4.72;;;2.00;;
62419;SDS011;48460;51.616;5.426;2023-02-27T10:23:00;4.20;;;1.95;;
62419;SDS011;48460;51.616;5.426;2023-02-27T10:28:01;4.03;;;2.08;;
62419;SDS011;48460;51.616;5.426;2023-02-27T10:30:59;5.55;;;2.08;;
62419;SDS011;48460;51.616;5.426;2023-02-27T10:36:14;7.00;;;2.10;;
62419;SDS011;48460;51.616;5.426;2023-02-27T10:38:47;3.75;;;2.10;;
62419;SDS011;48460;51.616;5.426;2023-02-27T10:41:20;5.45;;;2.38;;
62419;SDS011;48460;51.616;5.426;2023-02-27T10:43:49;4.07;;;1.90;;
62419;SDS011;48460;51.616;5.426;2023-02-27T10:46:24;5.70;;;2.38;;
62419;SDS011;48460;51.616;5.426;2023-02-27T10:48:52;4.60;;;2.13;;
62419;SDS011;48460;51.616;5.426;2023-02-27T10:51:20;5.65;;;2.05;;
62419;SDS011;48460;51.616;5.426;2023-02-27T10:53:46;7.50;;;2.10;;
62419;SDS011;48460;51.616;5.426;2023-02-27T10:56:14;3.65;;;1.70;;
62419;SDS011;48460;51.616;5.426;2023-02-27T10:58:48;3.78;;;2.17;;
62419;SDS011;48460;51.616;5.426;2023-02-27T11:01:40;5.57;;;1.90;;
62419;SDS011;48460;51.616;5.426;2023-02-27T11:04:12;5.10;;;2.00;;
62419;SDS011;48460;51.616;5.426;2023-02-27T11:06:40;5.57;;;2.05;;
62419;SDS011;48460;51.616;5.426;2023-02-27T11:09:11;4.90;;;1.85;;
62419;SDS011;48460;51.616;5.426;2023-02-27T11:11:42;5.20;;;1.98;;
62419;SDS011;48460;51.616;5.426;2023-02-27T11:14:30;5.88;;;1.95;;
62419;SDS011;48460;51.616;5.426;2023-02-27T11:17:00;3.28;;;1.80;;
62419;SDS011;48460;51.616;5.426;2023-02-27T11:19:34;5.80;;;2.00;;
62419;SDS011;48460;51.616;5.426;2023-02-27T11:22:13;5.28;;;2.20;;
62419;SDS011;48460;51.616;5.426;2023-02-27T11:24:42;4.40;;;2.30;;
62419;SDS011;48460;51.616;5.426;2023-02-27T11:27:27;5.13;;;1.92;;
62419;SDS011;48460;51.616;5.426;2023-02-27T11:32:35;9.93;;;2.20;;
62419;SDS011;48460;51.616;5.426;2023-02-27T11:35:25;3.55;;;1.85;;
62419;SDS011;48460;51.616;5.426;2023-02-27T11:37:58;6.68;;;2.20;;
62419;SDS011;48460;51.616;5.426;2023-02-27T11:40:30;4.18;;;1.83;;
62419;SDS011;48460;51.616;5.426;2023-02-27T11:43:02;4.72;;;1.83;;
62419;SDS011;48460;51.616;5.426;2023-02-27T11:45:33;5.22;;;1.60;;
62419;SDS011;48460;51.616;5.426;2023-02-27T11:48:08;2.75;;;1.73;;
62419;SDS011;48460;51.616;5.426;2023-02-27T11:55:58;3.40;;;1.90;;
62419;SDS011;48460;51.616;5.426;2023-02-27T11:58:31;3.20;;;1.67;;
62419;SDS011;48460;51.616;5.426;2023-02-27T12:01:07;3.47;;;2.03;;
62419;SDS011;48460;51.616;5.426;2023-02-27T12:06:44;5.95;;;1.98;;
62419;SDS011;48460;51.616;5.426;2023-02-27T12:12:02;5.30;;;1.95;;
62419;SDS011;48460;51.616;5.426;2023-02-27T12:14:44;5.43;;;1.90;;
62419;SDS011;48460;51.616;5.426;2023-02-27T12:17:22;5.88;;;2.00;;
62419;SDS011;48460;51.616;5.426;2023-02-27T12:22:56;4.43;;;2.00;;
62419;SDS011;48460;51.616;5.426;2023-02-27T12:36:34;2.60;;;1.67;;
62419;SDS011;48460;51.616;5.426;2023-02-27T12:39:00;5.28;;;1.90;;
62419;SDS011;48460;51.616;5.426;2023-02-27T12:41:32;3.25;;;1.70;;
62419;SDS011;48460;51.616;5.426;2023-02-27T12:55:12;4.00;;;2.05;;
62419;SDS011;48460;51.616;5.426;2023-02-27T12:57:49;6.53;;;1.75;;
62419;SDS011;48460;51.616;5.426;2023-02-27T13:00:39;5.45;;;1.92;;
62419;SDS011;48460;51.616;5.426;2023-02-27T13:03:23;4.97;;;1.90;;
62419;SDS011;48460;51.616;5.426;2023-02-27T13:06:06;3.35;;;2.00;;
62419;SDS011;48460;51.616;5.426;2023-02-27T13:15:03;4.35;;;2.17;;
62419;SDS011;48460;51.616;5.426;2023-02-27T13:17:50;4.70;;;1.80;;
62419;SDS011;48460;51.616;5.426;2023-02-27T13:20:32;6.00;;;2.08;;
62419;SDS011;48460;51.616;5.426;2023-02-27T13:26:00;5.47;;;2.40;;
62419;SDS011;48460;51.616;5.426;2023-02-27T13:28:32;3.75;;;1.95;;
62419;SDS011;48460;51.616;5.426;2023-02-27T13:36:41;5.78;;;2.20;;
62419;SDS011;48460;51.616;5.426;2023-02-27T13:42:01;3.75;;;2.05;;
62419;SDS011;48460;51.616;5.426;2023-02-27T13:46:54;4.43;;;2.10;;
62419;SDS011;48460;51.616;5.426;2023-02-27T13:50:01;5.97;;;2.10;;
62419;SDS011;48460;51.616;5.426;2023-02-27T13:52:33;5.38;;;2.10;;
62419;SDS011;48460;51.616;5.426;2023-02-27T13:55:01;11.23;;;3.05;;
62419;SDS011;48460;51.616;5.426;2023-02-27T13:57:33;4.65;;;2.35;;
62419;SDS011;48460;51.616;5.426;2023-02-27T14:05:33;2.67;;;1.60;;
62419;SDS011;48460;51.616;5.426;2023-02-27T14:10:54;4.35;;;2.22;;
62419;SDS011;48460;51.616;5.426;2023-02-27T14:16:49;4.32;;;2.35;;
62419;SDS011;48460;51.616;5.426;2023-02-27T14:19:27;4.25;;;1.88;;
62419;SDS011;48460;51.616;5.426;2023-02-27T14:27:28;3.65;;;1.70;;
62419;SDS011;48460;51.616;5.426;2023-02-27T14:29:56;3.85;;;1.70;;
62419;SDS011;48460;51.616;5.426;2023-02-27T14:32:33;3.15;;;1.60;;
62419;SDS011;48460;51.616;5.426;2023-02-27T14:35:00;3.78;;;1.88;;
62419;SDS011;48460;51.616;5.426;2023-02-27T14:37:29;4.82;;;2.10;;
62419;SDS011;48460;51.616;5.426;2023-02-27T14:39:55;4.97;;;2.08;;
62419;SDS011;48460;51.616;5.426;2023-02-27T14:45:13;4.43;;;2.00;;
62419;SDS011;48460;51.616;5.426;2023-02-27T14:47:43;4.82;;;2.08;;
62419;SDS011;48460;51.616;5.426;2023-02-27T14:50:20;4.38;;;1.90;;
62419;SDS011;48460;51.616;5.426;2023-02-27T14:52:52;3.33;;;1.60;;
62419;SDS011;48460;51.616;5.426;2023-02-27T14:55:22;3.47;;;1.85;;
62419;SDS011;48460;51.616;5.426;2023-02-27T15:00:41;4.03;;;2.00;;
62419;SDS011;48460;51.616;5.426;2023-02-27T15:06:45;5.45;;;1.80;;
62419;SDS011;48460;51.616;5.426;2023-02-27T15:12:07;2.38;;;1.70;;
62419;SDS011;48460;51.616;5.426;2023-02-27T15:14:36;5.75;;;2.13;;
62419;SDS011;48460;51.616;5.426;2023-02-27T15:17:14;4.35;;;1.80;;
62419;SDS011;48460;51.616;5.426;2023-02-27T15:22:55;4.43;;;1.85;;
62419;SDS011;48460;51.616;5.426;2023-02-27T15:25:29;4.55;;;2.20;;
62419;SDS011;48460;51.616;5.426;2023-02-27T15:28:05;3.17;;;1.70;;
62419;SDS011;48460;51.616;5.426;2023-02-27T15:30:46;5.07;;;3.08;;
62419;SDS011;48460;51.616;5.426;2023-02-27T15:33:13;5.80;;;2.33;;
62419;SDS011;48460;51.616;5.426;2023-02-27T15:35:46;3.22;;;1.80;;
62419;SDS011;48460;51.616;5.426;2023-02-27T15:41:03;4.75;;;2.13;;
62419;SDS011;48460;51.616;5.426;2023-02-27T15:43:45;5.93;;;2.20;;
62419;SDS011;48460;51.616;5.426;2023-02-27T15:46:13;4.13;;;2.20;;
62419;SDS011;48460;51.616;5.426;2023-02-27T15:48:46;3.28;;;2.10;;
62419;SDS011;48460;51.616;5.426;2023-02-27T15:51:21;6.25;;;2.30;;
62419;SDS011;48460;51.616;5.426;2023-02-27T15:53:56;4.28;;;1.95;;
62419;SDS011;48460;51.616;5.426;2023-02-27T15:56:33;6.30;;;1.90;;
62419;SDS011;48460;51.616;5.426;2023-02-27T16:01:40;7.18;;;2.20;;
62419;SDS011;48460;51.616;5.426;2023-02-27T16:04:21;5.30;;;1.90;;
62419;SDS011;48460;51.616;5.426;2023-02-27T16:07:04;6.25;;;2.40;;
62419;SDS011;48460;51.616;5.426;2023-02-27T16:09:34;7.05;;;2.50;;
62419;SDS011;48460;51.616;5.426;2023-02-27T16:15:18;7.10;;;3.50;;
62419;SDS011;48460;51.616;5.426;2023-02-27T16:20:45;3.92;;;2.20;;
62419;SDS011;48460;51.616;5.426;2023-02-27T16:31:31;4.10;;;2.15;;
62419;SDS011;48460;51.616;5.426;2023-02-27T16:36:59;6.85;;;2.70;;
62419;SDS011;48460;51.616;5.426;2023-02-27T16:39:45;7.35;;;3.10;;
62419;SDS011;48460;51.616;5.426;2023-02-27T16:42:14;8.60;;;3.80;;
62419;SDS011;48460;51.616;5.426;2023-02-27T16:44:46;9.57;;;3.92;;
62419;SDS011;48460;51.616;5.426;2023-02-27T16:47:13;5.70;;;2.80;;
62419;SDS011;48460;51.616;5.426;2023-02-27T16:49:39;7.43;;;3.80;;
62419;SDS011;48460;51.616;5.426;2023-02-27T16:52:10;14.18;;;5.05;;
62419;SDS011;48460;51.616;5.426;2023-02-27T16:54:36;7.80;;;4.20;;
62419;SDS011;48460;51.616;5.426;2023-02-27T17:00:22;4.70;;;2.80;;
62419;SDS011;48460;51.616;5.426;2023-02-27T17:02:48;4.47;;;2.42;;
62419;SDS011;48460;51.616;5.426;2023-02-27T17:05:16;6.13;;;2.70;;
62419;SDS011;48460;51.616;5.426;2023-02-27T17:07:48;7.15;;;2.83;;
62419;SDS011;48460;51.616;5.426;2023-02-27T17:10:19;5.78;;;2.70;;
62419;SDS011;48460;51.616;5.426;2023-02-27T17:13:07;4.63;;;2.60;;
62419;SDS011;48460;51.616;5.426;2023-02-27T17:15:39;9.20;;;2.60;;
62419;SDS011;48460;51.616;5.426;2023-02-27T17:18:04;4.43;;;2.40;;
62419;SDS011;48460;51.616;5.426;2023-02-27T17:20:33;5.95;;;2.55;;
62419;SDS011;48460;51.616;5.426;2023-02-27T17:25:48;7.53;;;2.78;;
62419;SDS011;48460;51.616;5.426;2023-02-27T17:28:21;6.32;;;3.00;;
62419;SDS011;48460;51.616;5.426;2023-02-27T17:42:37;6.78;;;2.95;;
62419;SDS011;48460;51.616;5.426;2023-02-27T17:45:09;8.40;;;3.47;;
62419;SDS011;48460;51.616;5.426;2023-02-27T17:47:41;6.82;;;3.10;;
62419;SDS011;48460;51.616;5.426;2023-02-27T17:50:10;8.35;;;3.53;;
62419;SDS011;48460;51.616;5.426;2023-02-27T17:52:38;7.55;;;3.90;;
62419;SDS011;48460;51.616;5.426;2023-02-27T17:55:06;8.93;;;4.13;;
62419;SDS011;48460;51.616;5.426;2023-02-27T17:57:35;6.70;;;3.20;;
62419;SDS011;48460;51.616;5.426;2023-02-27T18:00:06;6.00;;;3.15;;
62419;SDS011;48460;51.616;5.426;2023-02-27T18:02:52;8.38;;;3.40;;
62419;SDS011;48460;51.616;5.426;2023-02-27T18:10:59;6.88;;;3.10;;
62419;SDS011;48460;51.616;5.426;2023-02-27T18:16:41;7.40;;;3.45;;
62419;SDS011;48460;51.616;5.426;2023-02-27T18:19:11;10.80;;;3.55;;
62419;SDS011;48460;51.616;5.426;2023-02-27T18:21:54;8.80;;;3.50;;
62419;SDS011;48460;51.616;5.426;2023-02-27T18:24:46;7.22;;;3.72;;
62419;SDS011;48460;51.616;5.426;2023-02-27T18:30:06;6.30;;;3.60;;
62419;SDS011;48460;51.616;5.426;2023-02-27T18:32:41;7.53;;;4.47;;
62419;SDS011;48460;51.616;5.426;2023-02-27T18:35:17;9.70;;;4.65;;
62419;SDS011;48460;51.616;5.426;2023-02-27T18:37:54;12.70;;;4.93;;
62419;SDS011;48460;51.616;5.426;2023-02-27T18:40:20;11.25;;;4.93;;
62419;SDS011;48460;51.616;5.426;2023-02-27T18:42:52;7.38;;;4.10;;
62419;SDS011;48460;51.616;5.426;2023-02-27T18:45:18;7.65;;;4.13;;
62419;SDS011;48460;51.616;5.426;2023-02-27T18:47:51;6.65;;;3.53;;
62419;SDS011;48460;51.616;5.426;2023-02-27T18:50:58;7.65;;;3.78;;
62419;SDS011;48460;51.616;5.426;2023-02-27T18:53:39;11.38;;;4.00;;
62419;SDS011;48460;51.616;5.426;2023-02-27T18:56:18;11.13;;;4.88;;
62419;SDS011;48460;51.616;5.426;2023-02-27T18:59:04;7.50;;;4.10;;
62419;SDS011;48460;51.616;5.426;2023-02-27T21:26:32;16.05;;;9.27;;
62419;SDS011;48460;51.616;5.426;2023-02-27T21:42:05;18.08;;;8.10;;
62419;SDS011;48460;51.616;5.426;2023-02-27T22:10:48;15.50;;;7.95;;
